createdAt,value
2017-05-17T00:00:09.550Z,53.20
2017-05-17T00:02:38.445Z,53.20
2017-05-17T00:05:07.385Z,53.10
2017-05-17T00:07:37.110Z,53.00
2017-05-17T00:10:06.755Z,52.70
2017-05-17T00:12:35.660Z,53.20
2017-05-17T00:15:04.593Z,53.20
2017-05-17T00:17:34.310Z,53.30
2017-05-17T00:20:03.194Z,53.50
2017-05-17T00:22:32.839Z,53.70
2017-05-17T00:25:02.826Z,53.80
2017-05-17T00:27:31.720Z,53.90
2017-05-17T00:30:00.631Z,53.90
2017-05-17T00:32:29.554Z,53.70
2017-05-17T00:34:58.453Z,53.90
2017-05-17T00:37:39.308Z,54.00
2017-05-17T00:40:20.826Z,54.10
2017-05-17T00:43:01.735Z,54.50
2017-05-17T00:45:42.673Z,54.70
2017-05-17T00:48:23.460Z,54.90
2017-05-17T00:51:04.134Z,55.10
2017-05-17T00:53:33.102Z,55.10
2017-05-17T00:56:01.998Z,55.00
2017-05-17T00:58:30.912Z,55.00
2017-05-17T01:00:59.863Z,54.80
2017-05-17T01:03:28.758Z,54.90
2017-05-17T01:08:32.944Z,54.70
2017-05-17T01:11:02.602Z,54.80
2017-05-17T01:13:31.511Z,54.70
2017-05-17T01:16:00.457Z,54.30
2017-05-17T01:18:29.358Z,54.30
2017-05-17T01:20:58.250Z,54.30
2017-05-17T01:23:27.231Z,54.50
2017-05-17T01:25:56.866Z,54.50
2017-05-17T01:28:25.849Z,54.40
2017-05-17T01:30:55.482Z,54.40
2017-05-17T01:33:24.439Z,54.60
2017-05-17T01:35:53.351Z,54.80
2017-05-17T01:38:22.979Z,54.70
2017-05-17T01:40:51.893Z,54.80
2017-05-17T01:43:20.805Z,54.80
2017-05-17T01:45:49.698Z,54.80
2017-05-17T01:48:18.589Z,55.00
2017-05-17T01:50:47.499Z,55.10
2017-05-17T01:53:17.178Z,55.20
2017-05-17T01:55:46.073Z,55.20
2017-05-17T01:58:15.011Z,55.10
2017-05-17T02:00:43.918Z,54.80
2017-05-17T02:03:12.822Z,55.00
2017-05-17T02:05:41.750Z,54.80
2017-05-17T02:08:10.651Z,55.10
2017-05-17T02:10:40.300Z,55.10
2017-05-17T02:13:09.242Z,55.30
2017-05-17T02:15:38.158Z,54.80
2017-05-17T02:18:07.810Z,54.90
2017-05-17T02:20:36.698Z,55.20
2017-05-17T02:23:05.620Z,55.30
2017-05-17T02:25:34.537Z,55.30
2017-05-17T02:28:04.248Z,55.10
2017-05-17T02:30:33.190Z,55.20
2017-05-17T02:33:02.085Z,55.30
2017-05-17T02:35:30.982Z,55.20
2017-05-17T02:37:59.917Z,55.10
2017-05-17T02:40:29.546Z,55.00
2017-05-17T02:42:58.452Z,54.90
2017-05-17T02:45:27.376Z,54.60
2017-05-17T02:47:56.280Z,54.40
2017-05-17T02:50:25.915Z,54.90
2017-05-17T02:52:54.846Z,54.60
2017-05-17T02:55:23.726Z,54.60
2017-05-17T02:57:52.775Z,54.60
2017-05-17T03:00:22.442Z,54.50
2017-05-17T03:02:51.331Z,54.50
2017-05-17T03:05:20.226Z,54.30
2017-05-17T03:07:49.278Z,54.30
2017-05-17T03:10:18.188Z,54.40
2017-05-17T03:12:47.091Z,54.50
2017-05-17T03:15:16.014Z,54.60
2017-05-17T03:17:45.678Z,54.40
2017-05-17T03:20:14.692Z,54.20
2017-05-17T03:22:43.751Z,54.10
2017-05-17T03:25:12.654Z,54.10
2017-05-17T03:27:41.551Z,53.80
2017-05-17T03:30:10.470Z,53.60
2017-05-17T03:32:39.358Z,53.70
2017-05-17T03:35:08.284Z,53.60
2017-05-17T03:37:37.918Z,52.90
2017-05-17T03:40:06.830Z,52.50
2017-05-17T03:42:35.769Z,52.20
2017-05-17T03:45:05.401Z,52.80
2017-05-17T03:47:34.340Z,52.60
2017-05-17T03:50:03.227Z,52.10
2017-05-17T03:52:32.127Z,52.10
2017-05-17T03:55:01.049Z,52.10
2017-05-17T03:57:29.992Z,52.10
2017-05-17T03:59:58.947Z,52.00
2017-05-17T04:02:27.922Z,52.00
2017-05-17T04:04:57.559Z,52.10
2017-05-17T04:07:27.500Z,51.90
2017-05-17T04:09:56.433Z,51.60
2017-05-17T04:12:25.676Z,51.40
2017-05-17T04:14:54.584Z,50.90
2017-05-17T04:17:23.522Z,50.70
2017-05-17T04:19:53.171Z,50.60
2017-05-17T04:22:22.062Z,50.60
2017-05-17T04:24:51.002Z,51.30
2017-05-17T04:27:20.742Z,51.30
2017-05-17T04:29:49.673Z,51.40
2017-05-17T04:32:18.629Z,50.90
2017-05-17T04:34:48.319Z,50.90
2017-05-17T04:37:17.984Z,50.90
2017-05-17T04:39:46.891Z,51.00
2017-05-17T04:42:15.794Z,51.10
2017-05-17T04:44:44.747Z,51.20
2017-05-17T04:47:13.652Z,51.30
2017-05-17T04:49:42.550Z,51.10
2017-05-17T04:52:11.541Z,50.70
2017-05-17T04:54:40.434Z,50.80
2017-05-17T04:57:09.339Z,50.80
2017-05-17T04:59:38.288Z,51.00
2017-05-17T05:02:07.182Z,50.90
2017-05-17T05:04:36.218Z,50.90
2017-05-17T05:07:05.147Z,50.80
2017-05-17T05:09:34.142Z,50.40
2017-05-17T05:12:03.008Z,50.50
2017-05-17T05:14:32.677Z,50.50
2017-05-17T05:17:01.575Z,50.40
2017-05-17T05:19:30.463Z,50.30
2017-05-17T05:21:59.366Z,50.20
2017-05-17T05:24:28.271Z,50.10
2017-05-17T05:26:57.938Z,50.00
2017-05-17T05:29:26.869Z,50.00
2017-05-17T05:31:55.778Z,50.20
2017-05-17T05:34:24.723Z,50.20
2017-05-17T05:36:53.623Z,50.20
2017-05-17T05:39:22.532Z,50.40
2017-05-17T05:41:52.193Z,50.30
2017-05-17T05:44:21.094Z,50.20
2017-05-17T05:46:49.982Z,50.20
2017-05-17T05:49:18.913Z,50.10
2017-05-17T05:51:48.567Z,50.10
2017-05-17T05:54:17.467Z,49.30
2017-05-17T05:56:46.575Z,49.20
2017-05-17T05:59:15.614Z,49.70
2017-05-17T06:01:44.506Z,49.10
2017-05-17T06:04:13.434Z,49.60
2017-05-17T06:06:42.336Z,49.80
2017-05-17T06:09:11.231Z,50.60
2017-05-17T06:11:40.134Z,48.40
2017-05-17T06:14:09.043Z,50.10
2017-05-17T06:16:38.725Z,49.30
2017-05-17T06:19:07.630Z,50.30
2017-05-17T06:21:36.998Z,50.10
2017-05-17T06:24:05.918Z,50.60
2017-05-17T06:26:34.838Z,46.30
2017-05-17T06:29:04.467Z,48.00
2017-05-17T06:31:33.419Z,46.20
2017-05-17T06:34:02.329Z,45.40
2017-05-17T06:36:31.282Z,44.50
2017-05-17T06:39:00.318Z,44.80
2017-05-17T06:41:29.206Z,44.20
2017-05-17T06:43:58.944Z,44.10
2017-05-17T06:46:28.583Z,42.90
2017-05-17T06:48:57.491Z,43.30
2017-05-17T06:51:26.418Z,43.50
2017-05-17T06:53:55.317Z,41.10
2017-05-17T06:56:24.194Z,41.70
2017-05-17T06:58:53.121Z,42.30
2017-05-17T07:01:22.770Z,41.80
2017-05-17T07:03:51.794Z,41.30
2017-05-17T07:06:20.727Z,40.80
2017-05-17T07:08:50.442Z,40.50
2017-05-17T07:11:19.358Z,41.00
2017-05-17T07:13:48.359Z,41.20
2017-05-17T07:16:17.272Z,42.90
2017-05-17T07:18:46.174Z,41.80
2017-05-17T07:21:15.802Z,39.90
2017-05-17T07:23:44.759Z,39.80
2017-05-17T07:26:13.676Z,38.20
2017-05-17T07:28:43.324Z,38.60
2017-05-17T07:31:12.238Z,39.70
2017-05-17T07:33:41.138Z,38.10
2017-05-17T07:36:10.081Z,38.00
2017-05-17T07:38:39.031Z,38.10
2017-05-17T07:41:07.929Z,37.00
2017-05-17T07:43:36.834Z,37.50
2017-05-17T07:46:05.777Z,37.40
2017-05-17T07:48:35.440Z,35.90
2017-05-17T07:51:04.346Z,34.90
2017-05-17T07:53:33.298Z,35.50
2017-05-17T07:56:02.183Z,36.40
2017-05-17T07:58:31.289Z,36.50
2017-05-17T08:03:29.669Z,35.40
2017-05-17T08:05:58.571Z,36.60
2017-05-17T08:08:27.533Z,36.00
2017-05-17T08:10:56.459Z,35.40
2017-05-17T08:13:25.515Z,35.30
2017-05-17T08:15:54.380Z,34.80
2017-05-17T08:18:23.318Z,34.30
2017-05-17T08:20:52.308Z,32.90
2017-05-17T08:23:21.167Z,33.50
2017-05-17T08:25:50.141Z,33.70
2017-05-17T08:28:19.018Z,32.70
2017-05-17T08:30:47.931Z,32.10
2017-05-17T08:33:16.842Z,31.80
2017-05-17T08:35:45.751Z,30.70
2017-05-17T08:38:14.706Z,31.30
2017-05-17T08:40:44.370Z,30.70
2017-05-17T08:43:13.275Z,29.70
2017-05-17T08:45:42.196Z,30.20
2017-05-17T08:48:11.839Z,29.90
2017-05-17T08:50:40.740Z,30.40
2017-05-17T08:53:09.685Z,29.20
2017-05-17T08:55:38.569Z,29.80
2017-05-17T08:58:07.459Z,29.40
2017-05-17T09:00:37.127Z,28.90
2017-05-17T09:03:06.033Z,29.30
2017-05-17T09:05:34.914Z,29.20
2017-05-17T09:08:03.848Z,29.20
2017-05-17T09:10:33.486Z,28.90
2017-05-17T09:13:02.486Z,28.70
2017-05-17T09:15:32.150Z,28.90
2017-05-17T09:18:01.046Z,28.00
2017-05-17T09:20:30.690Z,26.00
2017-05-17T09:22:59.598Z,22.30
2017-05-17T09:25:28.554Z,21.60
2017-05-17T09:27:57.544Z,20.20
2017-05-17T09:30:26.414Z,18.60
2017-05-17T09:32:56.185Z,19.70
2017-05-17T09:35:25.095Z,19.80
2017-05-17T09:37:54.026Z,19.60
2017-05-17T09:40:22.967Z,19.20
2017-05-17T09:42:51.873Z,19.40
2017-05-17T09:45:20.780Z,18.00
2017-05-17T09:47:50.514Z,16.80
2017-05-17T09:50:19.426Z,16.50
2017-05-17T09:52:48.362Z,18.70
2017-05-17T09:55:17.283Z,16.90
2017-05-17T09:57:46.911Z,16.40
2017-05-17T10:00:15.823Z,15.90
2017-05-17T10:02:44.742Z,15.80
2017-05-17T10:05:14.437Z,15.90
2017-05-17T10:07:43.394Z,15.60
2017-05-17T10:10:12.287Z,15.30
2017-05-17T10:12:41.226Z,15.80
2017-05-17T10:15:10.098Z,15.30
2017-05-17T10:17:39.028Z,15.50
2017-05-17T10:20:08.657Z,15.90
2017-05-17T10:22:37.556Z,15.80
2017-05-17T10:25:06.521Z,16.30
2017-05-17T10:27:36.313Z,15.90
2017-05-17T10:30:05.230Z,15.30
2017-05-17T10:32:34.162Z,16.00
2017-05-17T10:35:03.087Z,16.60
2017-05-17T10:37:32.775Z,16.70
2017-05-17T10:40:01.678Z,16.70
2017-05-17T10:42:31.391Z,16.80
2017-05-17T10:45:00.309Z,17.00
2017-05-17T10:47:29.218Z,16.50
2017-05-17T10:49:58.125Z,15.90
2017-05-17T10:52:27.076Z,16.10
2017-05-17T10:54:56.734Z,14.80
2017-05-17T10:57:25.632Z,14.50
2017-05-17T10:59:54.543Z,15.30
2017-05-17T11:02:23.438Z,14.60
2017-05-17T11:04:53.093Z,14.40
2017-05-17T11:07:22.012Z,14.10
2017-05-17T11:09:50.949Z,14.50
2017-05-17T11:12:19.806Z,14.20
2017-05-17T11:14:48.735Z,14.00
2017-05-17T11:17:17.642Z,13.80
2017-05-17T11:19:46.551Z,14.70
2017-05-17T11:22:15.471Z,14.80
2017-05-17T11:24:44.411Z,15.50
2017-05-17T11:27:13.322Z,15.40
2017-05-17T11:29:42.336Z,14.40
2017-05-17T11:32:11.298Z,13.50
2017-05-17T11:34:40.211Z,14.00
2017-05-17T11:37:09.118Z,13.70
2017-05-17T11:39:38.042Z,13.90
2017-05-17T11:42:06.950Z,14.60
2017-05-17T11:44:35.847Z,13.80
2017-05-17T11:47:05.569Z,14.20
2017-05-17T11:49:34.462Z,14.40
2017-05-17T11:52:03.351Z,14.80
2017-05-17T11:54:32.298Z,14.60
2017-05-17T11:57:01.942Z,14.10
2017-05-17T11:59:30.853Z,14.80
2017-05-17T12:01:59.758Z,15.00
2017-05-17T12:04:28.892Z,15.30
2017-05-17T12:06:58.562Z,14.70
2017-05-17T12:09:27.979Z,14.40
2017-05-17T12:11:56.865Z,14.20
2017-05-17T12:14:26.278Z,13.90
2017-05-17T12:16:56.054Z,14.50
2017-05-17T12:19:25.014Z,14.80
2017-05-17T12:21:53.917Z,15.90
2017-05-17T12:24:22.827Z,17.50
2017-05-17T12:26:51.759Z,18.30
2017-05-17T12:29:21.414Z,19.90
2017-05-17T12:31:50.306Z,21.20
2017-05-17T12:34:19.218Z,21.60
2017-05-17T12:36:48.167Z,22.80
2017-05-17T12:39:17.064Z,24.00
2017-05-17T12:41:45.995Z,24.10
2017-05-17T12:44:14.899Z,24.00
2017-05-17T12:46:43.822Z,24.40
2017-05-17T12:49:12.826Z,24.20
2017-05-17T12:51:41.730Z,24.50
2017-05-17T12:54:10.643Z,24.70
2017-05-17T12:56:40.422Z,25.00
2017-05-17T12:59:09.322Z,24.80
2017-05-17T13:01:38.246Z,25.30
2017-05-17T13:04:07.178Z,25.90
2017-05-17T13:06:36.061Z,25.70
2017-05-17T13:09:05.023Z,25.60
2017-05-17T13:11:39.088Z,25.40
2017-05-17T13:14:08.018Z,25.10
2017-05-17T13:16:37.642Z,25.80
2017-05-17T13:19:06.542Z,25.90
2017-05-17T13:21:35.470Z,25.70
2017-05-17T13:24:04.397Z,25.80
2017-05-17T13:26:34.069Z,25.90
2017-05-17T13:29:02.946Z,25.20
2017-05-17T13:31:31.841Z,25.00
2017-05-17T13:34:00.778Z,25.50
2017-05-17T13:36:29.707Z,26.10
2017-05-17T13:38:58.622Z,25.50
2017-05-17T13:41:27.534Z,25.70
2017-05-17T13:43:56.478Z,25.80
2017-05-17T13:46:31.381Z,25.70
2017-05-17T13:49:01.558Z,26.60
2017-05-17T13:51:30.508Z,24.90
2017-05-17T13:53:59.467Z,25.20
2017-05-17T13:56:28.533Z,25.00
2017-05-17T13:58:57.433Z,25.60
2017-05-17T14:01:27.066Z,25.40
2017-05-17T14:03:55.957Z,25.40
2017-05-17T14:06:24.882Z,25.40
2017-05-17T14:08:53.776Z,24.70
2017-05-17T14:11:22.695Z,25.20
2017-05-17T14:13:52.349Z,25.50
2017-05-17T14:16:21.293Z,25.30
2017-05-17T14:18:50.902Z,24.80
2017-05-17T14:21:19.827Z,25.40
2017-05-17T14:23:48.777Z,25.80
2017-05-17T14:26:18.414Z,25.90
2017-05-17T14:28:47.331Z,25.50
2017-05-17T14:31:16.256Z,24.70
2017-05-17T14:38:45.634Z,25.70
2017-05-17T14:41:14.535Z,25.60
2017-05-17T14:43:44.848Z,25.50
2017-05-17T14:46:14.259Z,25.60
2017-05-17T14:48:43.307Z,26.40
2017-05-17T14:51:12.312Z,26.30
2017-05-17T14:53:41.267Z,26.10
2017-05-17T14:56:10.272Z,25.70
2017-05-17T14:58:39.917Z,25.40
2017-05-17T15:01:08.872Z,25.00
2017-05-17T15:03:37.886Z,25.80
2017-05-17T15:06:06.774Z,25.50
2017-05-17T15:08:35.731Z,25.40
2017-05-17T15:11:04.736Z,26.00
2017-05-17T15:13:35.057Z,25.80
2017-05-17T15:16:04.706Z,26.10
2017-05-17T15:18:33.751Z,25.20
2017-05-17T15:21:02.715Z,25.10
2017-05-17T15:23:31.661Z,26.50
2017-05-17T15:26:00.623Z,25.40
2017-05-17T15:28:29.482Z,26.50
2017-05-17T15:30:58.507Z,25.50
2017-05-17T15:33:27.415Z,25.90
2017-05-17T15:35:56.573Z,25.70
2017-05-17T15:38:25.511Z,25.70
2017-05-17T15:40:54.417Z,26.30
2017-05-17T15:43:23.331Z,26.50
2017-05-17T15:45:53.188Z,26.40
2017-05-17T15:48:22.803Z,26.10
2017-05-17T15:50:51.711Z,26.30
2017-05-17T15:53:20.650Z,26.70
2017-05-17T15:55:49.595Z,27.10
2017-05-17T15:58:18.578Z,27.40
2017-05-17T16:00:47.474Z,27.30
2017-05-17T16:03:16.438Z,27.20
2017-05-17T16:05:45.443Z,27.30
2017-05-17T16:08:14.858Z,27.20
2017-05-17T16:10:44.003Z,27.00
2017-05-17T16:13:12.962Z,27.60
2017-05-17T16:15:41.873Z,27.70
2017-05-17T16:18:10.779Z,28.10
2017-05-17T16:20:39.707Z,27.80
2017-05-17T16:23:08.598Z,27.40
2017-05-17T16:25:37.498Z,28.00
2017-05-17T16:28:06.964Z,28.10
2017-05-17T16:30:35.859Z,28.00
2017-05-17T16:33:04.796Z,28.30
2017-05-17T16:35:33.764Z,28.10
2017-05-17T16:38:02.672Z,28.30
2017-05-17T16:40:32.318Z,28.60
2017-05-17T16:43:01.247Z,28.50
2017-05-17T16:45:30.169Z,29.10
2017-05-17T16:47:59.825Z,29.00
2017-05-17T16:50:28.749Z,28.90
2017-05-17T16:52:57.672Z,28.70
2017-05-17T16:55:26.606Z,28.80
2017-05-17T16:57:55.588Z,29.00
2017-05-17T17:00:24.491Z,28.70
2017-05-17T17:02:53.543Z,28.90
2017-05-17T17:05:23.199Z,29.00
2017-05-17T17:07:52.096Z,29.50
2017-05-17T17:10:21.042Z,29.90
2017-05-17T17:12:49.967Z,29.50
2017-05-17T17:15:18.875Z,30.10
2017-05-17T17:17:47.791Z,30.00
2017-05-17T17:20:17.477Z,29.80
2017-05-17T17:22:47.697Z,30.00
2017-05-17T17:25:16.616Z,29.50
2017-05-17T17:27:46.265Z,29.90
2017-05-17T17:30:15.203Z,30.30
2017-05-17T17:32:44.871Z,30.40
2017-05-17T17:35:13.820Z,30.30
2017-05-17T17:37:42.866Z,30.20
2017-05-17T17:40:11.843Z,30.10
2017-05-17T17:42:41.511Z,30.00
2017-05-17T17:45:10.472Z,29.90
2017-05-17T17:47:39.409Z,30.30
2017-05-17T17:50:08.447Z,30.60
2017-05-17T17:52:37.379Z,31.40
2017-05-17T17:55:06.291Z,30.70
2017-05-17T17:57:35.213Z,30.80
2017-05-17T18:00:04.902Z,31.30
2017-05-17T18:02:34.640Z,31.00
2017-05-17T18:05:04.320Z,31.30
2017-05-17T18:07:34.205Z,31.30
2017-05-17T18:10:03.260Z,31.10
2017-05-17T18:12:32.205Z,31.30
2017-05-17T18:15:01.162Z,31.80
2017-05-17T18:17:30.088Z,31.80
2017-05-17T18:19:59.159Z,31.90
2017-05-17T18:22:28.072Z,32.50
2017-05-17T18:24:57.050Z,32.80
2017-05-17T18:27:25.994Z,32.90
2017-05-17T18:29:54.933Z,33.20
2017-05-17T18:32:23.863Z,32.40
2017-05-17T18:34:53.530Z,32.60
2017-05-17T18:37:22.529Z,32.50
2017-05-17T18:39:51.427Z,33.20
2017-05-17T18:42:20.331Z,33.50
2017-05-17T18:44:49.270Z,33.30
2017-05-17T18:47:18.231Z,33.00
2017-05-17T18:49:47.146Z,33.50
2017-05-17T18:52:16.817Z,33.40
2017-05-17T18:54:45.776Z,33.80
2017-05-17T18:57:14.678Z,33.70
2017-05-17T18:59:43.607Z,33.90
2017-05-17T19:02:13.323Z,34.20
2017-05-17T19:04:42.975Z,34.10
2017-05-17T19:07:11.911Z,33.80
2017-05-17T19:09:41.602Z,34.00
2017-05-17T19:12:10.539Z,34.40
2017-05-17T19:14:40.208Z,34.40
2017-05-17T19:17:09.145Z,34.30
2017-05-17T19:19:38.070Z,34.90
2017-05-17T19:22:06.977Z,34.60
2017-05-17T19:24:36.864Z,35.40
2017-05-17T19:27:05.828Z,35.60
2017-05-17T19:29:35.474Z,35.80
2017-05-17T19:32:04.602Z,36.20
2017-05-17T19:34:33.524Z,36.00
2017-05-17T19:37:02.455Z,36.70
2017-05-17T19:39:31.376Z,35.90
2017-05-17T19:42:00.270Z,36.30
2017-05-17T19:44:29.920Z,35.50
2017-05-17T19:46:58.855Z,36.10
2017-05-17T19:49:27.777Z,36.90
2017-05-17T19:51:56.708Z,36.50
2017-05-17T19:54:25.668Z,36.40
2017-05-17T19:56:54.652Z,36.90
2017-05-17T19:59:23.541Z,37.10
2017-05-17T20:01:54.088Z,37.40
2017-05-17T20:17:23.137Z,39.90
2017-05-17T20:19:52.794Z,40.00
2017-05-17T20:22:21.707Z,40.10
2017-05-17T20:24:50.639Z,40.50
2017-05-17T20:27:20.300Z,40.30
2017-05-17T20:29:49.368Z,40.50
2017-05-17T20:32:18.273Z,40.60
2017-05-17T20:34:47.206Z,40.50
2017-05-17T20:37:16.767Z,40.70
2017-05-17T20:39:45.743Z,40.90
2017-05-17T20:42:14.672Z,41.00
2017-05-17T20:44:43.615Z,41.30
2017-05-17T20:47:12.511Z,41.10
2017-05-17T20:49:41.465Z,41.60
2017-05-17T20:52:10.353Z,41.50
2017-05-17T20:54:39.345Z,41.50
2017-05-17T20:57:08.286Z,41.60
2017-05-17T20:59:37.903Z,41.30
2017-05-17T21:02:06.829Z,41.30
2017-05-17T21:04:35.762Z,41.20
2017-05-17T21:07:04.706Z,41.50
2017-05-17T21:09:33.609Z,41.40
2017-05-17T21:12:02.551Z,41.10
2017-05-17T21:14:31.452Z,41.60
2017-05-17T21:17:00.363Z,41.50
2017-05-17T21:19:29.294Z,41.30
2017-05-17T21:21:59.611Z,41.50
2017-05-17T21:24:29.287Z,41.50
2017-05-17T21:26:58.183Z,42.00
2017-05-17T21:29:27.091Z,42.40
2017-05-17T21:31:56.026Z,42.50
2017-05-17T21:34:24.930Z,42.50
2017-05-17T21:36:53.870Z,42.90
2017-05-17T21:39:23.554Z,42.70
2017-05-17T21:41:52.463Z,43.00
2017-05-17T21:44:21.348Z,43.10
2017-05-17T21:46:50.307Z,43.00
2017-05-17T21:49:19.219Z,43.20
2017-05-17T21:51:48.145Z,43.10
2017-05-17T21:54:17.776Z,43.30
2017-05-17T21:56:46.959Z,43.50
2017-05-17T21:59:16.622Z,43.60
2017-05-17T22:01:45.535Z,43.30
2017-05-17T22:04:14.421Z,44.10
2017-05-17T22:06:43.353Z,44.30
2017-05-17T22:09:13.002Z,44.00
2017-05-17T22:11:41.882Z,44.00
2017-05-17T22:14:10.887Z,44.00
2017-05-17T22:16:39.795Z,44.30
2017-05-17T22:19:08.699Z,43.90
2017-05-17T22:21:38.362Z,44.20
2017-05-17T22:24:07.390Z,44.20
2017-05-17T22:26:36.326Z,44.00
2017-05-17T22:29:05.238Z,44.10
2017-05-17T22:31:34.163Z,44.20
2017-05-17T22:34:03.067Z,44.50
2017-05-17T22:36:32.731Z,44.80
2017-05-17T22:39:01.633Z,44.80
2017-05-17T22:41:30.530Z,44.50
2017-05-17T22:43:59.542Z,44.50
2017-05-17T22:46:28.454Z,45.00
2017-05-17T22:48:57.366Z,45.20
2017-05-17T22:51:26.315Z,45.20
2017-05-17T22:53:55.943Z,45.20
2017-05-17T22:56:24.866Z,45.20
2017-05-17T22:58:53.811Z,45.50
2017-05-17T23:01:22.708Z,45.40
2017-05-17T23:03:51.619Z,45.30
2017-05-17T23:06:20.587Z,45.40
2017-05-17T23:08:49.565Z,45.30
2017-05-17T23:11:19.245Z,44.90
2017-05-17T23:13:48.173Z,45.20
2017-05-17T23:16:17.878Z,45.10
2017-05-17T23:18:47.547Z,45.20
2017-05-17T23:21:16.447Z,45.30
2017-05-17T23:23:45.338Z,45.60
2017-05-17T23:26:14.461Z,45.50
2017-05-17T23:28:44.098Z,45.50
2017-05-17T23:31:13.015Z,45.40
2017-05-17T23:33:41.936Z,45.30
2017-05-17T23:36:11.577Z,45.40
2017-05-17T23:38:40.489Z,45.50
2017-05-17T23:41:09.414Z,45.50
2017-05-17T23:43:38.312Z,45.60
2017-05-17T23:46:07.207Z,45.70
2017-05-17T23:48:36.723Z,45.70
2017-05-17T23:51:05.582Z,45.70
2017-05-17T23:53:34.486Z,45.90
2017-05-17T23:56:03.429Z,46.00
2017-05-17T23:58:33.070Z,45.80
